createdAt,value
2018-04-17T09:40:42.212Z,22.60
2018-04-17T09:43:11.760Z,22.00
2018-04-17T09:45:40.477Z,22.00
2018-04-17T09:48:09.945Z,21.60
2018-04-17T09:50:39.311Z,21.90
2018-04-17T09:53:08.830Z,21.80
2018-04-17T09:55:38.285Z,21.00
2018-04-17T09:58:08.092Z,20.30
2018-04-17T10:00:44.360Z,20.20
2018-04-17T10:03:13.102Z,20.00
2018-04-17T10:05:41.830Z,20.30
2018-04-17T10:08:11.244Z,20.10
2018-04-17T10:10:41.713Z,20.50
2018-04-17T10:13:10.445Z,20.70
2018-04-17T10:15:39.645Z,20.50
2018-04-17T10:18:09.697Z,21.20
2018-04-17T10:20:38.378Z,21.20
2018-04-17T10:23:07.997Z,22.20
2018-04-17T10:25:37.093Z,22.10
2018-04-17T10:28:05.834Z,22.20
2018-04-17T10:30:34.641Z,22.10
2018-04-17T10:33:03.417Z,21.80
2018-04-17T10:35:32.933Z,21.60
2018-04-17T10:38:01.713Z,21.60
2018-04-17T10:40:30.924Z,22.60
2018-04-17T12:33:50.248Z,21.40
2018-04-17T12:36:24.238Z,21.30
2018-04-17T12:38:54.245Z,21.50
2018-04-17T12:41:29.935Z,22.00
2018-04-17T12:44:05.245Z,21.80
2018-04-17T12:46:39.667Z,21.80
2018-04-17T12:49:15.029Z,22.00
2018-04-17T12:51:52.747Z,22.00
2018-04-17T12:54:28.249Z,22.10
2018-04-17T12:57:02.475Z,22.00
2018-04-17T12:59:36.253Z,22.10
2018-04-17T13:02:10.953Z,21.70
2018-04-17T13:04:44.330Z,22.00
2018-04-17T13:07:14.865Z,22.00
2018-04-17T13:09:46.582Z,21.70
2018-04-17T13:12:22.265Z,21.50
2018-04-17T13:15:00.059Z,21.50
2018-04-17T13:17:35.628Z,21.50
2018-04-17T13:20:05.412Z,21.70
2018-04-17T13:22:38.699Z,21.80
2018-04-17T13:25:13.608Z,21.80
2018-04-17T13:27:47.375Z,21.80
2018-04-17T13:30:21.355Z,21.50
2018-04-17T13:32:56.393Z,21.00
2018-04-17T13:35:31.057Z,21.20
2018-04-17T13:38:05.028Z,21.10
2018-04-17T13:40:35.814Z,21.50
2018-04-17T13:43:10.044Z,21.70
2018-04-17T13:55:14.423Z,20.90
2018-04-17T13:57:47.891Z,20.90
2018-04-17T14:00:17.639Z,20.60
2018-04-17T14:02:51.159Z,20.40
2018-04-17T14:05:25.144Z,20.30
2018-04-17T14:07:59.524Z,20.60
2018-04-17T14:10:33.256Z,20.70
2018-04-17T14:13:07.372Z,20.70
2018-04-17T14:15:42.128Z,20.60
2018-04-17T14:18:15.443Z,20.50
2018-04-17T14:20:45.158Z,20.30
2018-04-17T14:23:18.529Z,20.50
2018-04-17T14:25:51.085Z,20.70
2018-04-17T14:28:25.881Z,20.50
2018-04-17T14:31:00.639Z,20.40
2018-04-17T14:33:35.401Z,20.60
2018-04-17T14:36:10.669Z,20.60
2018-04-17T14:41:55.097Z,20.60
2018-04-17T14:44:29.583Z,20.60
2018-04-17T14:47:04.541Z,20.70
2018-04-17T14:49:34.356Z,20.70
2018-04-17T14:52:10.380Z,20.50
2018-04-17T14:54:45.221Z,20.50
2018-04-17T14:57:20.329Z,20.20
2018-04-17T14:59:56.105Z,19.60
2018-04-17T15:02:32.556Z,19.40
2018-04-17T15:05:02.090Z,19.40
2018-04-17T15:07:37.114Z,19.40
2018-04-17T15:10:11.994Z,19.50
2018-04-17T15:12:48.543Z,19.60
2018-04-17T15:15:22.529Z,19.70
2018-04-17T15:17:57.335Z,19.60
2018-04-17T15:20:32.598Z,19.50
2018-04-17T15:23:10.468Z,19.50
2018-04-17T15:25:45.273Z,19.60
2018-04-17T15:28:21.458Z,19.70
2018-04-17T15:30:55.168Z,19.70
2018-04-17T15:33:29.716Z,19.40
2018-04-17T15:36:03.134Z,18.90
2018-04-17T15:38:38.187Z,18.90
2018-04-17T15:41:12.713Z,19.30
2018-04-17T15:43:46.448Z,19.50
2018-04-17T15:46:15.966Z,19.70
2018-04-17T15:48:50.859Z,19.70
2018-04-17T15:51:35.552Z,19.70
2018-04-17T15:54:08.305Z,19.60
2018-04-17T15:56:42.474Z,19.50
